sensor_id;sensor_type;location;lat;lon;timestamp;P1;durP1;ratioP1;P2;durP2;ratioP2
55202;SDS011;41077;52.956;6.796;2023-08-06T00:00:17;889.05;;;816.58;;
55202;SDS011;41077;52.956;6.796;2023-08-06T00:02:43;909.75;;;838.67;;
55202;SDS011;41077;52.956;6.796;2023-08-06T00:05:09;880.78;;;813.13;;
55202;SDS011;41077;52.956;6.796;2023-08-06T00:07:34;855.58;;;791.22;;
55202;SDS011;41077;52.956;6.796;2023-08-06T00:10:00;863.13;;;798.53;;
55202;SDS011;41077;52.956;6.796;2023-08-06T00:12:26;881.63;;;814.55;;
55202;SDS011;41077;52.956;6.796;2023-08-06T00:14:52;846.33;;;782.45;;
55202;SDS011;41077;52.956;6.796;2023-08-06T00:17:18;880.75;;;813.38;;
55202;SDS011;41077;52.956;6.796;2023-08-06T00:19:43;871.38;;;804.72;;
55202;SDS011;41077;52.956;6.796;2023-08-06T00:22:09;889.28;;;822.67;;
55202;SDS011;41077;52.956;6.796;2023-08-06T00:24:35;874.65;;;808.72;;
55202;SDS011;41077;52.956;6.796;2023-08-06T00:27:01;874.13;;;808.08;;
55202;SDS011;41077;52.956;6.796;2023-08-06T00:29:27;879.00;;;814.35;;
55202;SDS011;41077;52.956;6.796;2023-08-06T00:31:53;886.58;;;819.28;;
55202;SDS011;41077;52.956;6.796;2023-08-06T00:34:19;865.45;;;800.05;;
55202;SDS011;41077;52.956;6.796;2023-08-06T00:36:45;906.70;;;838.72;;
55202;SDS011;41077;52.956;6.796;2023-08-06T00:39:10;875.70;;;810.88;;
55202;SDS011;41077;52.956;6.796;2023-08-06T00:41:36;860.80;;;795.85;;
55202;SDS011;41077;52.956;6.796;2023-08-06T00:44:02;911.42;;;841.65;;
55202;SDS011;41077;52.956;6.796;2023-08-06T00:46:28;904.88;;;835.63;;
55202;SDS011;41077;52.956;6.796;2023-08-06T00:48:53;868.60;;;803.97;;
55202;SDS011;41077;52.956;6.796;2023-08-06T00:51:20;867.88;;;801.95;;
55202;SDS011;41077;52.956;6.796;2023-08-06T00:53:47;859.53;;;795.30;;
55202;SDS011;41077;52.956;6.796;2023-08-06T00:56:14;864.45;;;799.63;;
55202;SDS011;41077;52.956;6.796;2023-08-06T00:58:40;878.50;;;812.50;;
55202;SDS011;41077;52.956;6.796;2023-08-06T01:01:06;884.30;;;818.28;;
55202;SDS011;41077;52.956;6.796;2023-08-06T01:03:32;867.08;;;802.33;;
55202;SDS011;41077;52.956;6.796;2023-08-06T01:05:57;864.40;;;800.65;;
55202;SDS011;41077;52.956;6.796;2023-08-06T01:11:27;865.33;;;801.50;;
55202;SDS011;41077;52.956;6.796;2023-08-06T01:14:06;874.15;;;809.65;;
55202;SDS011;41077;52.956;6.796;2023-08-06T01:16:35;881.58;;;815.47;;
55202;SDS011;41077;52.956;6.796;2023-08-06T01:19:02;874.10;;;810.20;;
55202;SDS011;41077;52.956;6.796;2023-08-06T01:21:28;840.97;;;779.92;;
55202;SDS011;41077;52.956;6.796;2023-08-06T01:23:53;885.20;;;818.42;;
55202;SDS011;41077;52.956;6.796;2023-08-06T01:27:04;852.78;;;789.90;;
55202;SDS011;41077;52.956;6.796;2023-08-06T01:29:24;878.95;;;813.50;;
55202;SDS011;41077;52.956;6.796;2023-08-06T01:31:55;839.10;;;777.80;;
55202;SDS011;41077;52.956;6.796;2023-08-06T01:34:26;875.80;;;809.92;;
55202;SDS011;41077;52.956;6.796;2023-08-06T01:36:55;843.67;;;782.17;;
55202;SDS011;41077;52.956;6.796;2023-08-06T01:39:21;859.35;;;796.67;;
55202;SDS011;41077;52.956;6.796;2023-08-06T01:41:48;866.10;;;801.10;;
55202;SDS011;41077;52.956;6.796;2023-08-06T01:44:14;827.50;;;768.70;;
55202;SDS011;41077;52.956;6.796;2023-08-06T01:46:40;867.80;;;805.28;;
55202;SDS011;41077;52.956;6.796;2023-08-06T01:49:06;874.90;;;809.65;;
55202;SDS011;41077;52.956;6.796;2023-08-06T01:51:31;873.88;;;809.30;;
55202;SDS011;41077;52.956;6.796;2023-08-06T01:53:57;879.92;;;814.70;;
55202;SDS011;41077;52.956;6.796;2023-08-06T01:56:23;838.50;;;777.83;;
55202;SDS011;41077;52.956;6.796;2023-08-06T01:58:48;886.67;;;820.67;;
55202;SDS011;41077;52.956;6.796;2023-08-06T02:01:14;854.38;;;792.58;;
55202;SDS011;41077;52.956;6.796;2023-08-06T02:03:40;849.13;;;787.15;;
55202;SDS011;41077;52.956;6.796;2023-08-06T02:06:05;827.38;;;768.58;;
55202;SDS011;41077;52.956;6.796;2023-08-06T02:08:31;844.10;;;784.33;;
55202;SDS011;41077;52.956;6.796;2023-08-06T02:10:57;858.17;;;796.60;;
55202;SDS011;41077;52.956;6.796;2023-08-06T02:13:23;858.22;;;795.30;;
55202;SDS011;41077;52.956;6.796;2023-08-06T02:15:49;847.95;;;786.25;;
55202;SDS011;41077;52.956;6.796;2023-08-06T02:18:15;828.88;;;769.47;;
55202;SDS011;41077;52.956;6.796;2023-08-06T02:20:41;857.95;;;795.88;;
55202;SDS011;41077;52.956;6.796;2023-08-06T02:23:07;853.55;;;791.88;;
55202;SDS011;41077;52.956;6.796;2023-08-06T02:25:33;859.40;;;796.95;;
55202;SDS011;41077;52.956;6.796;2023-08-06T02:27:59;837.53;;;778.45;;
55202;SDS011;41077;52.956;6.796;2023-08-06T02:30:24;870.33;;;806.28;;
55202;SDS011;41077;52.956;6.796;2023-08-06T02:32:50;841.22;;;780.25;;
55202;SDS011;41077;52.956;6.796;2023-08-06T02:35:16;887.95;;;822.03;;
55202;SDS011;41077;52.956;6.796;2023-08-06T02:37:41;886.30;;;820.35;;
55202;SDS011;41077;52.956;6.796;2023-08-06T02:40:07;845.17;;;784.25;;
55202;SDS011;41077;52.956;6.796;2023-08-06T02:42:33;854.88;;;792.30;;
55202;SDS011;41077;52.956;6.796;2023-08-06T02:44:59;854.58;;;793.28;;
55202;SDS011;41077;52.956;6.796;2023-08-06T02:47:24;848.05;;;788.00;;
55202;SDS011;41077;52.956;6.796;2023-08-06T02:49:50;841.25;;;781.30;;
55202;SDS011;41077;52.956;6.796;2023-08-06T02:52:16;861.90;;;799.17;;
55202;SDS011;41077;52.956;6.796;2023-08-06T02:54:42;854.05;;;792.38;;
55202;SDS011;41077;52.956;6.796;2023-08-06T02:57:07;896.83;;;830.00;;
55202;SDS011;41077;52.956;6.796;2023-08-06T02:59:33;850.03;;;788.42;;
55202;SDS011;41077;52.956;6.796;2023-08-06T03:01:59;875.92;;;811.47;;
55202;SDS011;41077;52.956;6.796;2023-08-06T03:04:24;874.92;;;810.05;;
55202;SDS011;41077;52.956;6.796;2023-08-06T03:06:50;832.58;;;772.95;;
55202;SDS011;41077;52.956;6.796;2023-08-06T03:09:17;845.55;;;784.33;;
55202;SDS011;41077;52.956;6.796;2023-08-06T03:11:42;850.47;;;789.88;;
55202;SDS011;41077;52.956;6.796;2023-08-06T03:14:08;839.92;;;779.90;;
55202;SDS011;41077;52.956;6.796;2023-08-06T03:16:34;846.17;;;785.05;;
55202;SDS011;41077;52.956;6.796;2023-08-06T03:19:00;862.20;;;800.22;;
55202;SDS011;41077;52.956;6.796;2023-08-06T03:21:26;875.70;;;811.28;;
55202;SDS011;41077;52.956;6.796;2023-08-06T03:23:52;863.33;;;801.08;;
55202;SDS011;41077;52.956;6.796;2023-08-06T03:26:17;866.53;;;802.75;;
55202;SDS011;41077;52.956;6.796;2023-08-06T03:28:43;853.13;;;792.10;;
55202;SDS011;41077;52.956;6.796;2023-08-06T03:31:09;878.58;;;813.22;;
55202;SDS011;41077;52.956;6.796;2023-08-06T03:33:34;875.45;;;810.35;;
55202;SDS011;41077;52.956;6.796;2023-08-06T03:36:00;851.72;;;790.08;;
55202;SDS011;41077;52.956;6.796;2023-08-06T03:38:26;857.45;;;796.22;;
55202;SDS011;41077;52.956;6.796;2023-08-06T03:40:53;860.33;;;798.53;;
55202;SDS011;41077;52.956;6.796;2023-08-06T03:43:19;844.75;;;784.25;;
55202;SDS011;41077;52.956;6.796;2023-08-06T03:45:44;837.50;;;777.13;;
55202;SDS011;41077;52.956;6.796;2023-08-06T03:48:10;834.15;;;775.20;;
55202;SDS011;41077;52.956;6.796;2023-08-06T03:50:36;852.97;;;792.08;;
55202;SDS011;41077;52.956;6.796;2023-08-06T03:53:01;859.88;;;796.33;;
55202;SDS011;41077;52.956;6.796;2023-08-06T03:55:27;851.80;;;788.90;;
55202;SDS011;41077;52.956;6.796;2023-08-06T03:57:53;837.47;;;778.38;;
55202;SDS011;41077;52.956;6.796;2023-08-06T04:00:19;858.33;;;795.65;;
55202;SDS011;41077;52.956;6.796;2023-08-06T04:02:44;856.85;;;793.75;;
55202;SDS011;41077;52.956;6.796;2023-08-06T04:05:10;876.05;;;810.97;;
55202;SDS011;41077;52.956;6.796;2023-08-06T04:07:37;856.13;;;795.33;;
55202;SDS011;41077;52.956;6.796;2023-08-06T04:10:03;864.60;;;803.15;;
55202;SDS011;41077;52.956;6.796;2023-08-06T04:12:29;864.15;;;801.95;;
55202;SDS011;41077;52.956;6.796;2023-08-06T04:14:57;874.42;;;809.28;;
55202;SDS011;41077;52.956;6.796;2023-08-06T04:17:23;857.78;;;796.95;;
55202;SDS011;41077;52.956;6.796;2023-08-06T04:19:53;845.08;;;784.67;;
55202;SDS011;41077;52.956;6.796;2023-08-06T04:22:20;861.45;;;796.85;;
55202;SDS011;41077;52.956;6.796;2023-08-06T04:24:46;827.50;;;769.35;;
55202;SDS011;41077;52.956;6.796;2023-08-06T04:27:13;873.00;;;808.70;;
55202;SDS011;41077;52.956;6.796;2023-08-06T04:29:39;871.15;;;806.00;;
55202;SDS011;41077;52.956;6.796;2023-08-06T04:32:06;845.13;;;784.33;;
55202;SDS011;41077;52.956;6.796;2023-08-06T04:34:32;841.17;;;781.60;;
55202;SDS011;41077;52.956;6.796;2023-08-06T04:36:59;876.97;;;811.60;;
55202;SDS011;41077;52.956;6.796;2023-08-06T04:39:25;849.42;;;787.70;;
55202;SDS011;41077;52.956;6.796;2023-08-06T04:41:51;847.20;;;786.53;;
55202;SDS011;41077;52.956;6.796;2023-08-06T04:44:16;851.30;;;790.95;;
55202;SDS011;41077;52.956;6.796;2023-08-06T04:46:42;885.40;;;817.60;;
55202;SDS011;41077;52.956;6.796;2023-08-06T04:49:08;839.38;;;779.25;;
55202;SDS011;41077;52.956;6.796;2023-08-06T04:51:34;851.95;;;787.38;;
55202;SDS011;41077;52.956;6.796;2023-08-06T04:53:59;812.30;;;755.13;;
55202;SDS011;41077;52.956;6.796;2023-08-06T04:56:25;834.78;;;775.08;;
55202;SDS011;41077;52.956;6.796;2023-08-06T04:58:51;835.67;;;775.50;;
55202;SDS011;41077;52.956;6.796;2023-08-06T05:01:17;847.78;;;787.50;;
55202;SDS011;41077;52.956;6.796;2023-08-06T05:03:42;857.65;;;795.80;;
55202;SDS011;41077;52.956;6.796;2023-08-06T05:06:08;844.83;;;784.38;;
55202;SDS011;41077;52.956;6.796;2023-08-06T05:08:34;847.03;;;786.67;;
55202;SDS011;41077;52.956;6.796;2023-08-06T05:10:59;842.10;;;782.85;;
55202;SDS011;41077;52.956;6.796;2023-08-06T05:13:25;850.22;;;786.25;;
55202;SDS011;41077;52.956;6.796;2023-08-06T05:15:53;883.30;;;817.95;;
55202;SDS011;41077;52.956;6.796;2023-08-06T05:18:19;874.28;;;809.53;;
55202;SDS011;41077;52.956;6.796;2023-08-06T05:20:45;835.85;;;776.35;;
55202;SDS011;41077;52.956;6.796;2023-08-06T05:23:10;844.03;;;783.83;;
55202;SDS011;41077;52.956;6.796;2023-08-06T05:25:37;833.90;;;774.45;;
55202;SDS011;41077;52.956;6.796;2023-08-06T05:28:03;835.03;;;775.15;;
55202;SDS011;41077;52.956;6.796;2023-08-06T05:30:29;858.17;;;794.75;;
55202;SDS011;41077;52.956;6.796;2023-08-06T05:32:55;850.75;;;789.67;;
55202;SDS011;41077;52.956;6.796;2023-08-06T05:35:21;836.60;;;776.42;;
55202;SDS011;41077;52.956;6.796;2023-08-06T05:37:47;858.08;;;793.97;;
55202;SDS011;41077;52.956;6.796;2023-08-06T05:40:13;876.05;;;811.17;;
55202;SDS011;41077;52.956;6.796;2023-08-06T05:42:39;849.75;;;788.58;;
55202;SDS011;41077;52.956;6.796;2023-08-06T05:45:06;890.05;;;824.78;;
55202;SDS011;41077;52.956;6.796;2023-08-06T05:47:32;847.38;;;786.30;;
55202;SDS011;41077;52.956;6.796;2023-08-06T05:49:58;836.38;;;775.75;;
55202;SDS011;41077;52.956;6.796;2023-08-06T05:52:24;888.38;;;822.40;;
55202;SDS011;41077;52.956;6.796;2023-08-06T05:54:49;834.08;;;773.03;;
55202;SDS011;41077;52.956;6.796;2023-08-06T05:57:15;834.15;;;772.88;;
55202;SDS011;41077;52.956;6.796;2023-08-06T05:59:41;826.25;;;765.35;;
55202;SDS011;41077;52.956;6.796;2023-08-06T06:02:07;811.47;;;751.55;;
55202;SDS011;41077;52.956;6.796;2023-08-06T06:04:33;837.88;;;776.40;;
55202;SDS011;41077;52.956;6.796;2023-08-06T06:06:59;853.17;;;790.80;;
55202;SDS011;41077;52.956;6.796;2023-08-06T06:09:24;862.22;;;797.30;;
55202;SDS011;41077;52.956;6.796;2023-08-06T06:11:50;839.25;;;777.33;;
55202;SDS011;41077;52.956;6.796;2023-08-06T06:14:17;846.63;;;785.40;;
55202;SDS011;41077;52.956;6.796;2023-08-06T06:16:43;856.25;;;792.70;;
55202;SDS011;41077;52.956;6.796;2023-08-06T06:19:09;836.78;;;775.53;;
55202;SDS011;41077;52.956;6.796;2023-08-06T06:21:35;845.00;;;783.50;;
55202;SDS011;41077;52.956;6.796;2023-08-06T06:24:01;865.42;;;800.20;;
55202;SDS011;41077;52.956;6.796;2023-08-06T06:26:26;861.88;;;797.33;;
55202;SDS011;41077;52.956;6.796;2023-08-06T06:28:53;838.45;;;777.35;;
55202;SDS011;41077;52.956;6.796;2023-08-06T06:31:19;831.80;;;769.92;;
55202;SDS011;41077;52.956;6.796;2023-08-06T06:33:44;837.92;;;776.33;;
55202;SDS011;41077;52.956;6.796;2023-08-06T06:36:10;853.28;;;791.22;;
55202;SDS011;41077;52.956;6.796;2023-08-06T06:38:36;846.47;;;785.35;;
55202;SDS011;41077;52.956;6.796;2023-08-06T06:41:02;843.00;;;781.75;;
55202;SDS011;41077;52.956;6.796;2023-08-06T06:43:28;877.65;;;810.70;;
55202;SDS011;41077;52.956;6.796;2023-08-06T06:46:00;825.70;;;765.88;;
55202;SDS011;41077;52.956;6.796;2023-08-06T06:48:27;834.17;;;773.35;;
55202;SDS011;41077;52.956;6.796;2023-08-06T06:50:53;838.80;;;778.22;;
55202;SDS011;41077;52.956;6.796;2023-08-06T06:53:19;837.45;;;777.60;;
55202;SDS011;41077;52.956;6.796;2023-08-06T06:55:45;837.75;;;776.90;;
55202;SDS011;41077;52.956;6.796;2023-08-06T06:58:14;834.20;;;773.50;;
55202;SDS011;41077;52.956;6.796;2023-08-06T07:00:41;860.67;;;794.83;;
55202;SDS011;41077;52.956;6.796;2023-08-06T07:03:06;872.70;;;807.97;;
55202;SDS011;41077;52.956;6.796;2023-08-06T07:05:32;857.80;;;792.33;;
55202;SDS011;41077;52.956;6.796;2023-08-06T07:07:58;871.65;;;808.75;;
55202;SDS011;41077;52.956;6.796;2023-08-06T07:10:23;849.28;;;783.75;;
55202;SDS011;41077;52.956;6.796;2023-08-06T07:12:49;863.05;;;799.00;;
55202;SDS011;41077;52.956;6.796;2023-08-06T07:15:14;862.95;;;799.55;;
55202;SDS011;41077;52.956;6.796;2023-08-06T07:17:42;851.28;;;788.30;;
55202;SDS011;41077;52.956;6.796;2023-08-06T07:20:08;860.35;;;796.97;;
55202;SDS011;41077;52.956;6.796;2023-08-06T07:22:34;881.03;;;813.83;;
55202;SDS011;41077;52.956;6.796;2023-08-06T07:25:00;840.72;;;777.90;;
55202;SDS011;41077;52.956;6.796;2023-08-06T07:27:27;859.60;;;795.70;;
55202;SDS011;41077;52.956;6.796;2023-08-06T07:29:52;844.65;;;780.45;;
55202;SDS011;41077;52.956;6.796;2023-08-06T07:32:18;861.97;;;797.50;;
55202;SDS011;41077;52.956;6.796;2023-08-06T07:34:44;867.88;;;800.33;;
55202;SDS011;41077;52.956;6.796;2023-08-06T07:37:09;872.15;;;807.30;;
55202;SDS011;41077;52.956;6.796;2023-08-06T07:39:35;884.28;;;817.47;;
55202;SDS011;41077;52.956;6.796;2023-08-06T07:42:03;862.85;;;798.60;;
55202;SDS011;41077;52.956;6.796;2023-08-06T07:44:30;854.03;;;792.10;;
55202;SDS011;41077;52.956;6.796;2023-08-06T07:46:56;847.92;;;785.45;;
55202;SDS011;41077;52.956;6.796;2023-08-06T07:49:22;868.15;;;803.78;;
55202;SDS011;41077;52.956;6.796;2023-08-06T07:51:48;868.53;;;802.42;;
55202;SDS011;41077;52.956;6.796;2023-08-06T07:54:13;861.13;;;797.42;;
55202;SDS011;41077;52.956;6.796;2023-08-06T07:56:39;825.30;;;764.72;;
55202;SDS011;41077;52.956;6.796;2023-08-06T07:59:05;830.50;;;766.70;;
55202;SDS011;41077;52.956;6.796;2023-08-06T08:01:30;862.72;;;798.53;;
55202;SDS011;41077;52.956;6.796;2023-08-06T08:03:56;863.15;;;795.00;;
55202;SDS011;41077;52.956;6.796;2023-08-06T08:06:22;890.22;;;822.42;;
55202;SDS011;41077;52.956;6.796;2023-08-06T08:08:48;852.90;;;790.75;;
55202;SDS011;41077;52.956;6.796;2023-08-06T08:11:14;861.40;;;797.05;;
55202;SDS011;41077;52.956;6.796;2023-08-06T08:13:41;884.72;;;818.55;;
55202;SDS011;41077;52.956;6.796;2023-08-06T08:16:07;833.70;;;771.60;;
55202;SDS011;41077;52.956;6.796;2023-08-06T08:18:32;858.33;;;794.55;;
55202;SDS011;41077;52.956;6.796;2023-08-06T08:20:58;854.72;;;792.47;;
55202;SDS011;41077;52.956;6.796;2023-08-06T08:23:24;852.92;;;789.95;;
55202;SDS011;41077;52.956;6.796;2023-08-06T08:25:50;842.58;;;781.88;;
55202;SDS011;41077;52.956;6.796;2023-08-06T08:28:16;883.72;;;816.08;;
55202;SDS011;41077;52.956;6.796;2023-08-06T08:30:42;903.72;;;835.20;;
55202;SDS011;41077;52.956;6.796;2023-08-06T08:33:07;873.67;;;808.10;;
55202;SDS011;41077;52.956;6.796;2023-08-06T08:35:35;870.03;;;804.42;;
55202;SDS011;41077;52.956;6.796;2023-08-06T08:38:01;822.63;;;760.75;;
55202;SDS011;41077;52.956;6.796;2023-08-06T08:40:28;833.95;;;771.97;;
55202;SDS011;41077;52.956;6.796;2023-08-06T08:42:56;812.05;;;753.40;;
55202;SDS011;41077;52.956;6.796;2023-08-06T08:45:23;888.10;;;819.83;;
55202;SDS011;41077;52.956;6.796;2023-08-06T08:47:53;834.67;;;772.50;;
55202;SDS011;41077;52.956;6.796;2023-08-06T08:50:19;841.42;;;777.90;;
55202;SDS011;41077;52.956;6.796;2023-08-06T08:52:45;847.10;;;782.60;;
55202;SDS011;41077;52.956;6.796;2023-08-06T08:55:14;826.72;;;766.13;;
55202;SDS011;41077;52.956;6.796;2023-08-06T08:57:40;871.97;;;804.15;;
55202;SDS011;41077;52.956;6.796;2023-08-06T09:00:06;864.28;;;797.70;;
55202;SDS011;41077;52.956;6.796;2023-08-06T09:02:32;830.22;;;767.60;;
55202;SDS011;41077;52.956;6.796;2023-08-06T09:05:01;850.60;;;787.60;;
55202;SDS011;41077;52.956;6.796;2023-08-06T09:07:35;832.67;;;769.40;;
55202;SDS011;41077;52.956;6.796;2023-08-06T09:10:03;784.97;;;727.00;;
55202;SDS011;41077;52.956;6.796;2023-08-06T09:12:31;834.05;;;770.47;;
55202;SDS011;41077;52.956;6.796;2023-08-06T09:14:57;844.22;;;779.78;;
55202;SDS011;41077;52.956;6.796;2023-08-06T09:17:23;853.75;;;790.83;;
55202;SDS011;41077;52.956;6.796;2023-08-06T09:19:49;817.78;;;757.28;;
55202;SDS011;41077;52.956;6.796;2023-08-06T09:22:15;867.03;;;801.58;;
55202;SDS011;41077;52.956;6.796;2023-08-06T09:24:41;861.30;;;794.25;;
55202;SDS011;41077;52.956;6.796;2023-08-06T09:27:13;838.70;;;775.92;;
55202;SDS011;41077;52.956;6.796;2023-08-06T09:29:40;898.03;;;825.40;;
55202;SDS011;41077;52.956;6.796;2023-08-06T09:32:07;864.67;;;798.35;;
55202;SDS011;41077;52.956;6.796;2023-08-06T09:34:32;895.55;;;826.17;;
55202;SDS011;41077;52.956;6.796;2023-08-06T09:36:58;859.53;;;794.80;;
55202;SDS011;41077;52.956;6.796;2023-08-06T09:39:28;894.00;;;825.50;;
55202;SDS011;41077;52.956;6.796;2023-08-06T09:41:58;928.95;;;855.33;;
55202;SDS011;41077;52.956;6.796;2023-08-06T09:44:25;951.28;;;870.70;;
55202;SDS011;41077;52.956;6.796;2023-08-06T09:46:56;964.03;;;886.60;;
55202;SDS011;41077;52.956;6.796;2023-08-06T09:49:28;962.60;;;882.60;;
55202;SDS011;41077;52.956;6.796;2023-08-06T09:52:07;1004.50;;;919.60;;
55202;SDS011;41077;52.956;6.796;2023-08-06T09:54:36;953.10;;;875.15;;
55202;SDS011;41077;52.956;6.796;2023-08-06T09:57:03;976.63;;;895.08;;
55202;SDS011;41077;52.956;6.796;2023-08-06T09:59:29;977.65;;;897.15;;
55202;SDS011;41077;52.956;6.796;2023-08-06T10:01:57;990.15;;;902.47;;
55202;SDS011;41077;52.956;6.796;2023-08-06T10:04:23;986.20;;;898.00;;
55202;SDS011;41077;52.956;6.796;2023-08-06T10:06:49;904.65;;;829.78;;
55202;SDS011;41077;52.956;6.796;2023-08-06T10:09:15;914.15;;;839.10;;
55202;SDS011;41077;52.956;6.796;2023-08-06T10:11:44;865.10;;;794.75;;
55202;SDS011;41077;52.956;6.796;2023-08-06T10:14:16;851.60;;;782.00;;
55202;SDS011;41077;52.956;6.796;2023-08-06T10:16:52;941.22;;;858.78;;
55202;SDS011;41077;52.956;6.796;2023-08-06T10:19:18;907.75;;;831.72;;
55202;SDS011;41077;52.956;6.796;2023-08-06T10:24:49;942.20;;;861.55;;
55202;SDS011;41077;52.956;6.796;2023-08-06T10:27:27;870.77;;;799.43;;
55202;SDS011;41077;52.956;6.796;2023-08-06T10:30:19;975.38;;;889.17;;
55202;SDS011;41077;52.956;6.796;2023-08-06T10:40:42;977.55;;;893.10;;
55202;SDS011;41077;52.956;6.796;2023-08-06T10:43:26;869.28;;;798.70;;
55202;SDS011;41077;52.956;6.796;2023-08-06T10:45:52;987.17;;;898.65;;
55202;SDS011;41077;52.956;6.796;2023-08-06T10:48:34;990.17;;;901.13;;
55202;SDS011;41077;52.956;6.796;2023-08-06T10:51:10;944.28;;;861.65;;
55202;SDS011;41077;52.956;6.796;2023-08-06T10:53:37;954.60;;;871.47;;
55202;SDS011;41077;52.956;6.796;2023-08-06T10:58:42;956.63;;;872.63;;
55202;SDS011;41077;52.956;6.796;2023-08-06T11:01:09;950.75;;;868.65;;
55202;SDS011;41077;52.956;6.796;2023-08-06T11:03:36;1013.42;;;920.42;;
55202;SDS011;41077;52.956;6.796;2023-08-06T11:06:03;999.38;;;909.38;;
55202;SDS011;41077;52.956;6.796;2023-08-06T11:08:33;979.85;;;893.20;;
55202;SDS011;41077;52.956;6.796;2023-08-06T11:11:10;977.25;;;893.15;;
55202;SDS011;41077;52.956;6.796;2023-08-06T11:13:38;924.42;;;847.10;;
55202;SDS011;41077;52.956;6.796;2023-08-06T11:16:07;936.67;;;859.10;;
55202;SDS011;41077;52.956;6.796;2023-08-06T11:18:34;999.67;;;910.03;;
55202;SDS011;41077;52.956;6.796;2023-08-06T11:21:01;1000.45;;;912.13;;
55202;SDS011;41077;52.956;6.796;2023-08-06T11:23:27;979.08;;;890.88;;
55202;SDS011;41077;52.956;6.796;2023-08-06T11:25:56;1017.45;;;921.90;;
55202;SDS011;41077;52.956;6.796;2023-08-06T11:28:23;839.75;;;778.67;;
55202;SDS011;41077;52.956;6.796;2023-08-06T11:30:49;843.75;;;779.03;;
55202;SDS011;41077;52.956;6.796;2023-08-06T11:33:25;711.22;;;662.15;;
55202;SDS011;41077;52.956;6.796;2023-08-06T11:35:51;700.92;;;651.90;;
55202;SDS011;41077;52.956;6.796;2023-08-06T11:38:17;563.40;;;528.38;;
55202;SDS011;41077;52.956;6.796;2023-08-06T11:40:44;484.55;;;455.50;;
55202;SDS011;41077;52.956;6.796;2023-08-06T11:43:10;513.83;;;481.95;;
55202;SDS011;41077;52.956;6.796;2023-08-06T11:45:40;544.10;;;510.20;;
55202;SDS011;41077;52.956;6.796;2023-08-06T11:48:06;473.35;;;445.17;;
55202;SDS011;41077;52.956;6.796;2023-08-06T11:50:36;584.58;;;547.58;;
55202;SDS011;41077;52.956;6.796;2023-08-06T11:53:05;517.85;;;486.10;;
55202;SDS011;41077;52.956;6.796;2023-08-06T11:55:31;556.10;;;520.60;;
55202;SDS011;41077;52.956;6.796;2023-08-06T11:57:57;411.08;;;387.27;;
55202;SDS011;41077;52.956;6.796;2023-08-06T12:00:24;470.40;;;441.27;;
55202;SDS011;41077;52.956;6.796;2023-08-06T12:02:51;656.30;;;613.22;;
55202;SDS011;41077;52.956;6.796;2023-08-06T12:05:18;618.92;;;579.03;;
55202;SDS011;41077;52.956;6.796;2023-08-06T12:07:51;531.30;;;498.10;;
55202;SDS011;41077;52.956;6.796;2023-08-06T12:10:19;414.20;;;391.02;;
55202;SDS011;41077;52.956;6.796;2023-08-06T12:12:45;476.02;;;446.40;;
55202;SDS011;41077;52.956;6.796;2023-08-06T12:15:11;632.85;;;592.75;;
55202;SDS011;41077;52.956;6.796;2023-08-06T12:17:37;439.88;;;415.58;;
55202;SDS011;41077;52.956;6.796;2023-08-06T12:20:04;629.75;;;588.42;;
55202;SDS011;41077;52.956;6.796;2023-08-06T12:22:31;353.52;;;333.98;;
55202;SDS011;41077;52.956;6.796;2023-08-06T12:25:06;462.25;;;433.10;;
55202;SDS011;41077;52.956;6.796;2023-08-06T12:27:36;319.17;;;301.88;;
55202;SDS011;41077;52.956;6.796;2023-08-06T12:30:03;443.38;;;416.67;;
55202;SDS011;41077;52.956;6.796;2023-08-06T12:32:30;206.52;;;195.68;;
55202;SDS011;41077;52.956;6.796;2023-08-06T12:34:56;369.02;;;347.13;;
55202;SDS011;41077;52.956;6.796;2023-08-06T12:37:21;381.85;;;360.38;;
55202;SDS011;41077;52.956;6.796;2023-08-06T12:39:48;606.40;;;566.28;;
55202;SDS011;41077;52.956;6.796;2023-08-06T12:42:13;486.55;;;456.90;;
55202;SDS011;41077;52.956;6.796;2023-08-06T12:44:39;511.63;;;480.30;;
55202;SDS011;41077;52.956;6.796;2023-08-06T12:47:05;444.33;;;416.40;;
55202;SDS011;41077;52.956;6.796;2023-08-06T12:49:31;495.27;;;465.83;;
55202;SDS011;41077;52.956;6.796;2023-08-06T12:51:58;302.90;;;286.00;;
55202;SDS011;41077;52.956;6.796;2023-08-06T12:54:25;415.33;;;391.60;;
55202;SDS011;41077;52.956;6.796;2023-08-06T12:56:51;546.58;;;511.10;;
55202;SDS011;41077;52.956;6.796;2023-08-06T12:59:17;551.25;;;514.70;;
55202;SDS011;41077;52.956;6.796;2023-08-06T13:01:44;463.05;;;435.35;;
55202;SDS011;41077;52.956;6.796;2023-08-06T13:04:10;515.92;;;483.27;;
55202;SDS011;41077;52.956;6.796;2023-08-06T13:06:36;520.00;;;487.05;;
55202;SDS011;41077;52.956;6.796;2023-08-06T13:09:04;460.10;;;431.38;;
55202;SDS011;41077;52.956;6.796;2023-08-06T13:11:31;265.90;;;252.00;;
55202;SDS011;41077;52.956;6.796;2023-08-06T13:14:03;441.67;;;415.58;;
55202;SDS011;41077;52.956;6.796;2023-08-06T13:16:30;354.17;;;334.50;;
55202;SDS011;41077;52.956;6.796;2023-08-06T13:18:56;435.75;;;411.05;;
55202;SDS011;41077;52.956;6.796;2023-08-06T13:21:22;478.58;;;449.42;;
55202;SDS011;41077;52.956;6.796;2023-08-06T13:23:48;434.60;;;409.50;;
55202;SDS011;41077;52.956;6.796;2023-08-06T13:26:13;453.55;;;427.67;;
55202;SDS011;41077;52.956;6.796;2023-08-06T13:28:40;322.25;;;304.30;;
55202;SDS011;41077;52.956;6.796;2023-08-06T13:31:06;406.08;;;382.02;;
55202;SDS011;41077;52.956;6.796;2023-08-06T13:33:32;394.95;;;372.35;;
55202;SDS011;41077;52.956;6.796;2023-08-06T13:35:58;420.92;;;396.50;;
55202;SDS011;41077;52.956;6.796;2023-08-06T13:38:24;377.15;;;356.55;;
55202;SDS011;41077;52.956;6.796;2023-08-06T13:40:49;444.05;;;417.40;;
55202;SDS011;41077;52.956;6.796;2023-08-06T13:43:15;422.80;;;398.58;;
55202;SDS011;41077;52.956;6.796;2023-08-06T13:45:42;295.13;;;278.98;;
55202;SDS011;41077;52.956;6.796;2023-08-06T13:48:07;447.55;;;420.35;;
55202;SDS011;41077;52.956;6.796;2023-08-06T13:50:35;447.30;;;421.10;;
55202;SDS011;41077;52.956;6.796;2023-08-06T13:53:01;339.38;;;320.42;;
55202;SDS011;41077;52.956;6.796;2023-08-06T13:55:27;306.67;;;290.10;;
55202;SDS011;41077;52.956;6.796;2023-08-06T13:57:53;445.88;;;420.02;;
55202;SDS011;41077;52.956;6.796;2023-08-06T14:00:19;369.00;;;348.23;;
55202;SDS011;41077;52.956;6.796;2023-08-06T14:02:45;448.98;;;422.45;;
55202;SDS011;41077;52.956;6.796;2023-08-06T14:05:10;330.63;;;313.30;;
55202;SDS011;41077;52.956;6.796;2023-08-06T14:07:36;327.50;;;309.27;;
55202;SDS011;41077;52.956;6.796;2023-08-06T14:10:02;439.75;;;414.77;;